createdAt,value
2019-05-17T00:01:13.787Z,4.67
2019-05-17T00:03:40.474Z,5.23
2019-05-17T00:06:11.212Z,5.40
2019-05-17T00:08:38.515Z,5.50
2019-05-17T00:11:06.678Z,5.13
2019-05-17T00:13:33.514Z,5.13
2019-05-17T00:16:00.234Z,5.40
2019-05-17T00:18:28.198Z,5.30
2019-05-17T00:20:56.954Z,5.33
2019-05-17T00:23:23.506Z,6.10
2019-05-17T00:25:50.164Z,5.83
2019-05-17T00:28:20.045Z,5.60
2019-05-17T00:30:48.161Z,5.80
2019-05-17T00:33:16.810Z,5.73
2019-05-17T00:35:43.409Z,6.07
2019-05-17T00:38:10.076Z,6.37
2019-05-17T00:40:36.902Z,6.93
2019-05-17T00:43:03.571Z,5.97
2019-05-17T00:45:30.269Z,7.87
2019-05-17T00:47:57.338Z,6.20
2019-05-17T00:50:24.148Z,6.97
2019-05-17T00:52:51.136Z,12.30
2019-05-17T00:55:17.860Z,7.60
2019-05-17T00:57:44.525Z,7.40
2019-05-17T01:00:11.236Z,6.47
2019-05-17T01:02:37.940Z,6.90
2019-05-17T01:05:06.347Z,7.00
2019-05-17T01:07:33.892Z,7.40
2019-05-17T01:10:00.610Z,7.50
2019-05-17T01:12:27.344Z,8.23
2019-05-17T01:14:54.365Z,6.93
2019-05-17T01:17:21.513Z,7.03
2019-05-17T01:19:48.215Z,6.70
2019-05-17T01:22:16.902Z,6.43
2019-05-17T01:24:46.168Z,6.73
2019-05-17T01:27:12.462Z,8.37
2019-05-17T01:29:39.162Z,9.87
2019-05-17T01:32:06.828Z,8.50
2019-05-17T01:34:33.788Z,8.17
2019-05-17T01:37:00.468Z,8.00
2019-05-17T01:39:27.201Z,12.07
2019-05-17T01:41:53.884Z,17.30
2019-05-17T01:44:21.317Z,11.73
2019-05-17T01:46:49.521Z,12.40
2019-05-17T01:49:16.575Z,13.30
2019-05-17T01:51:43.489Z,16.03
2019-05-17T01:54:10.161Z,11.47
2019-05-17T01:56:37.105Z,17.40
2019-05-17T01:59:06.622Z,15.00
2019-05-17T02:01:33.017Z,14.63
2019-05-17T02:04:00.223Z,13.80
2019-05-17T02:06:27.157Z,12.67
2019-05-17T02:08:53.886Z,14.40
2019-05-17T02:11:20.568Z,14.33
2019-05-17T02:13:47.218Z,16.70
2019-05-17T02:16:16.381Z,13.20
2019-05-17T02:18:42.520Z,13.60
2019-05-17T02:21:09.240Z,12.57
2019-05-17T02:23:37.214Z,12.40
2019-05-17T02:26:08.984Z,12.17
2019-05-17T02:28:35.642Z,14.00
2019-05-17T02:31:03.461Z,18.90
2019-05-17T02:33:33.168Z,12.47
2019-05-17T02:35:59.177Z,16.97
2019-05-17T02:38:25.849Z,12.70
2019-05-17T02:40:53.511Z,12.67
2019-05-17T02:43:23.367Z,12.30
2019-05-17T02:45:52.483Z,15.00
2019-05-17T02:48:17.819Z,13.57
2019-05-17T02:50:48.160Z,12.57
2019-05-17T02:53:13.292Z,15.97
2019-05-17T02:55:43.347Z,14.73
2019-05-17T02:58:12.622Z,13.87
2019-05-17T03:00:37.685Z,14.40
2019-05-17T03:03:04.393Z,14.20
2019-05-17T03:05:33.826Z,15.17
2019-05-17T03:08:04.105Z,13.70
2019-05-17T03:10:33.393Z,13.80
2019-05-17T03:13:04.124Z,12.30
2019-05-17T03:15:32.392Z,14.53
2019-05-17T03:18:03.178Z,12.90
2019-05-17T03:20:28.348Z,12.90
2019-05-17T03:22:55.040Z,13.50
2019-05-17T03:25:23.918Z,14.93
2019-05-17T03:27:53.359Z,12.93
2019-05-17T03:30:20.735Z,13.97
2019-05-17T03:32:55.519Z,13.03
2019-05-17T03:35:19.302Z,15.30
2019-05-17T03:37:45.993Z,12.90
2019-05-17T03:40:27.325Z,16.70
2019-05-17T03:42:42.867Z,14.70
2019-05-17T03:45:13.281Z,17.17
2019-05-17T03:47:38.494Z,14.70
2019-05-17T03:50:05.198Z,16.03
2019-05-17T03:52:33.267Z,15.43
2019-05-17T03:55:03.546Z,17.60
2019-05-17T03:57:28.966Z,27.97
2019-05-17T03:59:55.665Z,17.80
2019-05-17T04:02:23.207Z,15.83
2019-05-17T04:04:52.845Z,17.37
2019-05-17T04:07:18.649Z,16.97
2019-05-17T04:09:45.347Z,17.77
2019-05-17T04:12:13.561Z,16.80
2019-05-17T04:14:43.136Z,20.90
2019-05-17T04:17:12.855Z,17.30
2019-05-17T04:19:42.545Z,17.43
2019-05-17T04:22:09.153Z,16.03
2019-05-17T04:24:35.867Z,23.40
2019-05-17T04:27:03.511Z,16.67
2019-05-17T04:29:33.150Z,17.60
2019-05-17T04:31:59.689Z,21.27
2019-05-17T04:34:26.398Z,15.00
2019-05-17T04:36:53.074Z,21.03
2019-05-17T04:39:22.625Z,19.80
2019-05-17T04:41:51.100Z,17.87
2019-05-17T04:44:17.463Z,18.23
2019-05-17T04:46:44.497Z,16.70
2019-05-17T04:49:14.022Z,16.63
2019-05-17T04:51:43.895Z,17.93
2019-05-17T04:54:13.438Z,19.83
2019-05-17T04:56:38.653Z,18.33
2019-05-17T04:59:05.408Z,17.10
2019-05-17T05:01:34.730Z,19.30
2019-05-17T05:04:03.516Z,17.97
2019-05-17T05:06:32.600Z,18.97
2019-05-17T05:08:58.635Z,25.23
2019-05-17T05:11:25.323Z,19.60
2019-05-17T05:13:53.076Z,18.97
2019-05-17T05:16:22.564Z,19.93
2019-05-17T05:18:48.837Z,16.53
2019-05-17T05:21:15.539Z,19.60
2019-05-17T05:23:42.637Z,17.23
2019-05-17T05:26:11.869Z,17.77
2019-05-17T05:28:41.990Z,22.60
2019-05-17T05:31:09.349Z,21.00
2019-05-17T05:33:36.012Z,18.57
2019-05-17T05:36:02.738Z,17.73
2019-05-17T05:38:31.915Z,16.60
2019-05-17T05:40:58.402Z,19.43
2019-05-17T05:43:25.081Z,20.47
2019-05-17T05:45:53.641Z,21.77
2019-05-17T05:48:21.744Z,19.40
2019-05-17T05:50:48.682Z,21.07
2019-05-17T05:53:15.834Z,18.07
2019-05-17T05:55:43.313Z,18.03
2019-05-17T05:58:12.086Z,23.10
2019-05-17T06:00:39.055Z,21.50
2019-05-17T06:03:07.345Z,16.87
2019-05-17T06:05:34.038Z,16.13
2019-05-17T06:08:02.825Z,22.20
2019-05-17T06:10:32.534Z,16.50
2019-05-17T06:13:02.599Z,18.80
2019-05-17T06:15:28.388Z,18.50
2019-05-17T06:17:55.112Z,17.57
2019-05-17T06:20:22.423Z,15.50
2019-05-17T06:22:49.207Z,19.13
2019-05-17T06:25:16.058Z,15.60
2019-05-17T06:27:42.754Z,15.83
2019-05-17T06:30:09.451Z,17.93
2019-05-17T06:32:36.123Z,23.27
2019-05-17T06:35:03.149Z,24.53
2019-05-17T06:37:31.755Z,19.43
2019-05-17T06:39:58.408Z,14.27
2019-05-17T06:42:37.441Z,18.10
2019-05-17T06:44:53.673Z,12.63
2019-05-17T06:47:22.577Z,15.20
2019-05-17T06:49:50.625Z,13.23
2019-05-17T06:52:17.703Z,13.30
2019-05-17T06:54:45.506Z,20.27
2019-05-17T06:57:12.949Z,10.93
2019-05-17T06:59:39.740Z,11.57
2019-05-17T07:02:10.406Z,17.70
2019-05-17T07:04:39.400Z,11.40
2019-05-17T07:07:40.531Z,13.30
2019-05-17T07:10:07.511Z,11.63
2019-05-17T07:12:34.219Z,14.50
2019-05-17T07:15:01.580Z,11.87
2019-05-17T07:17:30.414Z,13.37
2019-05-17T07:19:59.537Z,11.03
2019-05-17T07:22:25.969Z,10.73
2019-05-17T07:24:52.790Z,19.50
2019-05-17T07:27:19.526Z,10.70
2019-05-17T07:29:49.719Z,12.07
2019-05-17T07:32:16.651Z,11.40
2019-05-17T07:34:43.362Z,16.07
2019-05-17T07:37:10.625Z,11.10
2019-05-17T07:39:42.355Z,17.20
2019-05-17T07:42:19.570Z,11.40
2019-05-17T07:44:46.591Z,12.57
2019-05-17T07:47:13.313Z,13.03
2019-05-17T07:49:41.321Z,10.90
2019-05-17T07:52:10.305Z,11.03
2019-05-17T07:54:36.693Z,12.50
2019-05-17T07:57:03.390Z,11.40
2019-05-17T07:59:30.200Z,10.90
2019-05-17T08:01:56.876Z,9.03
2019-05-17T08:04:25.139Z,10.53
2019-05-17T08:06:53.713Z,10.23
2019-05-17T08:09:23.883Z,10.63
2019-05-17T08:11:50.680Z,10.67
2019-05-17T08:14:29.349Z,13.83
2019-05-17T08:16:45.996Z,12.90
2019-05-17T08:19:12.695Z,11.77
2019-05-17T08:21:39.920Z,9.33
2019-05-17T08:24:06.841Z,10.87
2019-05-17T08:26:33.540Z,10.93
2019-05-17T08:29:00.845Z,15.10
2019-05-17T08:31:29.559Z,14.30
2019-05-17T08:33:56.369Z,12.97
2019-05-17T08:36:23.095Z,11.37
2019-05-17T08:38:50.311Z,14.87
2019-05-17T08:41:17.701Z,9.83
2019-05-17T08:43:46.963Z,9.83
2019-05-17T08:46:13.055Z,7.30
2019-05-17T08:48:40.264Z,6.77
2019-05-17T08:51:06.970Z,8.57
2019-05-17T08:53:33.691Z,9.80
2019-05-17T08:56:01.156Z,8.30
2019-05-17T08:58:29.703Z,9.10
2019-05-17T09:00:56.544Z,5.80
2019-05-17T09:03:23.504Z,5.50
2019-05-17T09:05:53.031Z,11.23
2019-05-17T09:08:20.750Z,5.10
2019-05-17T09:10:50.303Z,6.77
2019-05-17T09:13:16.130Z,5.37
2019-05-17T09:15:42.849Z,5.40
2019-05-17T09:18:11.809Z,6.33
2019-05-17T09:20:40.517Z,5.03
2019-05-17T09:23:09.474Z,6.23
2019-05-17T09:25:35.764Z,4.83
2019-05-17T09:28:02.479Z,7.23
2019-05-17T09:30:31.332Z,7.63
2019-05-17T09:33:00.140Z,4.53
2019-05-17T09:35:26.561Z,4.57
2019-05-17T09:37:53.234Z,4.90
2019-05-17T09:40:20.199Z,5.83
2019-05-17T09:42:46.910Z,5.43
2019-05-17T09:45:13.609Z,5.03
2019-05-17T09:47:40.685Z,4.63
2019-05-17T09:50:09.680Z,3.77
2019-05-17T09:52:36.054Z,3.80
2019-05-17T09:55:02.892Z,5.53
2019-05-17T09:57:29.887Z,3.20
2019-05-17T09:59:56.836Z,3.70
2019-05-17T10:02:23.534Z,3.80
2019-05-17T10:04:50.439Z,4.83
2019-05-17T10:07:17.171Z,4.73
2019-05-17T10:09:43.892Z,6.90
2019-05-17T10:12:10.727Z,5.60
2019-05-17T10:14:40.470Z,4.73
2019-05-17T10:17:09.723Z,6.97
2019-05-17T10:19:36.674Z,5.33
2019-05-17T10:22:03.433Z,6.87
2019-05-17T10:24:37.989Z,6.90
2019-05-17T10:26:59.525Z,5.63
2019-05-17T10:29:26.376Z,7.80
2019-05-17T10:31:53.078Z,6.30
2019-05-17T10:34:20.313Z,6.70
2019-05-17T10:36:47.640Z,7.07
2019-05-17T10:39:14.700Z,9.10
2019-05-17T10:41:42.715Z,8.13
2019-05-17T10:44:09.527Z,7.17
2019-05-17T10:46:36.264Z,14.80
2019-05-17T10:49:03.322Z,5.73
2019-05-17T10:51:30.056Z,8.73
2019-05-17T10:53:56.822Z,6.10
2019-05-17T10:56:27.927Z,6.50
2019-05-17T10:58:54.752Z,8.30
2019-05-17T11:01:21.482Z,6.73
2019-05-17T11:03:51.198Z,6.17
2019-05-17T11:06:19.730Z,6.37
2019-05-17T11:08:46.580Z,6.73
2019-05-17T11:11:13.297Z,6.27
2019-05-17T11:13:40.018Z,6.63
2019-05-17T11:16:06.775Z,6.90
2019-05-17T11:18:33.500Z,8.70
2019-05-17T11:21:02.950Z,6.17
2019-05-17T11:23:29.966Z,6.33
2019-05-17T11:25:56.821Z,7.93
2019-05-17T11:28:23.535Z,6.90
2019-05-17T11:30:50.580Z,5.90
2019-05-17T11:33:17.282Z,7.57
2019-05-17T11:35:44.045Z,5.87
2019-05-17T11:38:10.768Z,7.60
2019-05-17T11:40:37.598Z,6.73
2019-05-17T11:43:04.396Z,5.47
2019-05-17T11:45:32.816Z,8.90
2019-05-17T11:47:59.727Z,5.43
2019-05-17T11:50:26.448Z,4.77
2019-05-17T11:52:53.434Z,7.43
2019-05-17T11:55:20.130Z,5.00
2019-05-17T11:57:46.843Z,4.80
2019-05-17T12:00:14.566Z,4.60
2019-05-17T12:02:43.533Z,17.67
2019-05-17T12:05:10.907Z,6.57
2019-05-17T12:07:37.624Z,4.73
2019-05-17T12:10:04.434Z,10.97
2019-05-17T12:12:33.216Z,4.70
2019-05-17T12:14:59.946Z,6.57
2019-05-17T12:17:26.886Z,4.93
2019-05-17T12:19:53.569Z,5.60
2019-05-17T12:22:20.353Z,5.80
2019-05-17T12:24:47.076Z,5.63
2019-05-17T12:27:13.778Z,6.10
2019-05-17T12:29:40.486Z,5.13
2019-05-17T12:32:09.067Z,5.97
2019-05-17T12:34:35.726Z,5.63
2019-05-17T12:37:04.738Z,4.40
2019-05-17T12:39:31.529Z,9.73
2019-05-17T12:41:58.311Z,5.73
2019-05-17T12:44:25.175Z,7.10
2019-05-17T12:46:51.878Z,4.07
2019-05-17T12:49:18.886Z,5.83
2019-05-17T12:51:45.620Z,6.17
2019-05-17T12:54:12.327Z,8.07
2019-05-17T12:56:39.924Z,5.70
2019-05-17T12:59:06.631Z,5.40
2019-05-17T13:01:34.218Z,5.13
2019-05-17T13:04:00.906Z,6.60
2019-05-17T13:06:27.614Z,5.57
2019-05-17T13:08:54.618Z,5.37
2019-05-17T13:11:21.328Z,5.40
2019-05-17T13:13:48.404Z,5.53
2019-05-17T13:16:19.014Z,5.80
2019-05-17T13:18:43.907Z,4.97
2019-05-17T13:21:11.531Z,5.37
2019-05-17T13:23:38.253Z,4.67
2019-05-17T13:26:05.242Z,5.23
2019-05-17T13:28:32.012Z,5.07
2019-05-17T13:30:58.717Z,4.93
2019-05-17T13:33:29.251Z,4.87
2019-05-17T13:35:56.267Z,5.87
2019-05-17T13:38:23.089Z,21.30
2019-05-17T13:40:49.766Z,5.53
2019-05-17T13:43:16.490Z,4.83
2019-05-17T13:45:44.191Z,7.03
2019-05-17T13:48:11.298Z,4.30
2019-05-17T13:50:37.974Z,4.77
2019-05-17T13:53:04.697Z,4.73
2019-05-17T13:55:31.398Z,7.23
2019-05-17T13:57:58.366Z,4.03
2019-05-17T14:00:25.062Z,4.40
2019-05-17T14:02:51.794Z,4.10
2019-05-17T14:05:18.471Z,4.23
2019-05-17T14:07:45.197Z,4.63
2019-05-17T14:10:26.087Z,4.03
2019-05-17T14:12:42.364Z,4.27
2019-05-17T14:15:09.175Z,5.33
2019-05-17T14:17:35.907Z,4.23
2019-05-17T14:20:03.088Z,6.60
2019-05-17T14:22:30.454Z,3.80
2019-05-17T14:24:57.441Z,5.80
2019-05-17T14:27:24.251Z,4.93
2019-05-17T14:29:51.247Z,4.90
2019-05-17T14:32:18.071Z,4.10
2019-05-17T14:34:44.832Z,4.13
2019-05-17T14:37:11.909Z,4.50
2019-05-17T14:39:38.630Z,4.60
2019-05-17T14:42:05.339Z,4.27
2019-05-17T14:44:32.724Z,4.40
2019-05-17T14:47:04.854Z,4.40
2019-05-17T14:49:31.568Z,4.30
2019-05-17T14:51:58.290Z,3.40
2019-05-17T14:54:25.000Z,6.17
2019-05-17T14:56:51.713Z,6.90
2019-05-17T14:59:18.736Z,4.77
2019-05-17T15:01:45.453Z,4.83
2019-05-17T15:04:12.206Z,4.60
2019-05-17T15:06:39.253Z,10.07
2019-05-17T15:09:05.985Z,4.53
2019-05-17T15:11:32.678Z,8.77
2019-05-17T15:13:59.947Z,5.00
2019-05-17T15:16:27.467Z,5.10
2019-05-17T15:18:54.254Z,3.47
2019-05-17T15:21:21.024Z,3.77
2019-05-17T15:23:47.766Z,7.37
2019-05-17T15:26:14.606Z,3.43
2019-05-17T15:28:41.676Z,3.60
2019-05-17T15:31:08.884Z,3.73
2019-05-17T15:33:35.614Z,4.63
2019-05-17T15:36:04.892Z,6.67
2019-05-17T15:38:32.055Z,3.90
2019-05-17T15:40:58.801Z,3.60
2019-05-17T15:43:25.525Z,3.97
2019-05-17T15:45:55.675Z,3.33
2019-05-17T15:48:22.495Z,4.10
2019-05-17T15:50:49.534Z,3.60
2019-05-17T15:53:16.355Z,3.60
2019-05-17T15:55:43.412Z,4.97
2019-05-17T15:58:10.397Z,4.10
2019-05-17T16:00:37.105Z,8.70
2019-05-17T16:03:05.833Z,6.70
2019-05-17T16:05:32.525Z,5.27
2019-05-17T16:07:59.262Z,4.90
2019-05-17T16:10:25.963Z,5.23
2019-05-17T16:13:02.528Z,8.10
2019-05-17T16:15:21.337Z,8.43
2019-05-17T16:17:48.482Z,5.00
2019-05-17T16:20:17.252Z,5.20
2019-05-17T16:22:44.033Z,4.83
2019-05-17T16:25:13.049Z,5.77
2019-05-17T16:27:39.959Z,5.30
2019-05-17T16:30:07.676Z,4.70
2019-05-17T16:32:59.116Z,6.80
2019-05-17T16:35:27.735Z,5.00
2019-05-17T16:37:54.517Z,4.53
2019-05-17T16:40:22.419Z,4.50
2019-05-17T16:42:49.437Z,9.03
2019-05-17T16:45:16.337Z,4.17
2019-05-17T16:47:43.018Z,5.83
2019-05-17T16:50:10.071Z,5.67
2019-05-17T16:52:36.911Z,7.70
2019-05-17T16:55:04.929Z,5.60
2019-05-17T16:57:31.765Z,12.30
2019-05-17T16:59:58.501Z,6.00
2019-05-17T17:02:25.407Z,5.33
2019-05-17T17:04:52.734Z,6.10
2019-05-17T17:07:19.785Z,5.40
2019-05-17T17:09:46.851Z,5.97
2019-05-17T17:12:17.603Z,6.20
2019-05-17T17:14:44.369Z,5.50
2019-05-17T17:17:12.995Z,6.23
2019-05-17T17:19:40.463Z,5.40
2019-05-17T17:22:07.286Z,6.03
2019-05-17T17:24:35.272Z,5.27
2019-05-17T17:27:01.957Z,5.00
2019-05-17T17:29:29.007Z,4.70
2019-05-17T17:31:55.819Z,5.40
2019-05-17T17:34:22.519Z,11.33
2019-05-17T17:36:49.861Z,4.57
2019-05-17T17:39:16.581Z,8.23
2019-05-17T17:41:43.611Z,4.43
2019-05-17T17:44:10.617Z,5.13
2019-05-17T17:46:37.335Z,6.70
2019-05-17T17:49:04.035Z,4.97
2019-05-17T17:51:30.801Z,5.30
2019-05-17T17:53:57.812Z,5.20
2019-05-17T17:56:24.649Z,4.93
2019-05-17T17:58:51.349Z,8.17
2019-05-17T18:01:18.065Z,8.63
2019-05-17T18:03:44.791Z,10.13
2019-05-17T18:06:11.524Z,5.20
2019-05-17T18:08:38.219Z,8.93
2019-05-17T18:11:06.562Z,5.97
2019-05-17T18:13:34.560Z,5.73
2019-05-17T18:16:01.273Z,10.80
2019-05-17T18:18:28.040Z,6.03
2019-05-17T18:20:54.768Z,7.50
2019-05-17T18:23:23.515Z,5.90
2019-05-17T18:25:50.199Z,10.20
2019-05-17T18:28:16.922Z,7.90
2019-05-17T18:30:43.745Z,6.80
2019-05-17T18:33:10.515Z,6.80
2019-05-17T18:35:39.237Z,6.10
2019-05-17T18:38:06.238Z,6.13
2019-05-17T18:40:33.005Z,6.90
2019-05-17T18:42:59.723Z,10.63
2019-05-17T18:45:26.893Z,7.10
2019-05-17T18:47:53.710Z,11.97
2019-05-17T18:50:20.519Z,8.83
2019-05-17T18:52:47.270Z,10.20
2019-05-17T18:55:13.939Z,7.63
2019-05-17T18:57:40.658Z,9.60
2019-05-17T19:00:09.931Z,6.37
2019-05-17T19:02:36.660Z,6.03
2019-05-17T19:05:09.599Z,6.27
2019-05-17T19:07:36.294Z,6.87
2019-05-17T19:10:03.667Z,8.73
2019-05-17T19:12:30.757Z,6.67
2019-05-17T19:15:00.525Z,6.67
2019-05-17T19:17:26.195Z,6.13
2019-05-17T19:19:53.011Z,6.27
2019-05-17T19:22:19.908Z,6.07
2019-05-17T19:24:46.655Z,6.90
2019-05-17T19:27:13.708Z,8.03
2019-05-17T19:29:43.253Z,6.93
2019-05-17T19:32:09.454Z,6.80
2019-05-17T19:34:36.612Z,9.23
2019-05-17T19:37:03.335Z,8.57
2019-05-17T19:39:30.156Z,7.60
2019-05-17T19:41:56.876Z,6.80
2019-05-17T19:44:26.659Z,6.80
2019-05-17T19:46:53.967Z,7.50
2019-05-17T19:49:20.699Z,7.47
2019-05-17T19:51:47.439Z,7.63
2019-05-17T19:54:14.357Z,10.10
2019-05-17T19:56:41.075Z,9.10
2019-05-17T19:59:07.961Z,9.30
2019-05-17T20:01:34.669Z,8.00
2019-05-17T20:04:01.407Z,8.23
2019-05-17T20:06:28.136Z,8.00
2019-05-17T20:08:55.025Z,7.43
2019-05-17T20:11:33.612Z,7.53
2019-05-17T20:13:51.398Z,8.80
2019-05-17T20:16:18.378Z,9.03
2019-05-17T20:18:45.533Z,8.90
2019-05-17T20:21:12.279Z,7.47
2019-05-17T20:23:39.009Z,7.83
2019-05-17T20:26:05.773Z,8.23
2019-05-17T20:28:32.749Z,11.47
2019-05-17T20:30:59.539Z,8.63
2019-05-17T20:33:26.602Z,8.50
2019-05-17T20:35:53.680Z,11.50
2019-05-17T20:38:20.398Z,9.60
2019-05-17T20:40:47.243Z,8.93
2019-05-17T20:43:15.133Z,12.33
2019-05-17T20:45:41.980Z,14.07
2019-05-17T20:48:08.963Z,10.23
2019-05-17T20:50:37.805Z,9.87
2019-05-17T20:53:17.921Z,11.87
2019-05-17T20:55:34.179Z,12.50
2019-05-17T20:58:01.186Z,9.00
2019-05-17T21:00:27.929Z,12.90
2019-05-17T21:02:54.682Z,10.00
2019-05-17T21:05:21.480Z,9.63
2019-05-17T21:07:52.586Z,12.03
2019-05-17T21:10:19.702Z,11.60
2019-05-17T21:12:46.404Z,9.00
2019-05-17T21:15:13.811Z,8.73
2019-05-17T21:17:40.747Z,7.90
2019-05-17T21:20:07.482Z,8.60
2019-05-17T21:22:34.246Z,9.30
2019-05-17T21:25:01.016Z,8.30
2019-05-17T21:27:27.728Z,8.90
2019-05-17T21:29:54.627Z,10.03
2019-05-17T21:32:21.381Z,9.50
2019-05-17T21:34:48.534Z,8.87
2019-05-17T21:37:15.594Z,8.37
2019-05-17T21:39:42.458Z,8.53
2019-05-17T21:42:09.178Z,9.30
2019-05-17T21:44:35.934Z,8.10
2019-05-17T21:47:04.932Z,11.67
2019-05-17T21:49:31.708Z,8.30
2019-05-17T21:51:58.465Z,8.70
2019-05-17T21:54:25.307Z,9.33
2019-05-17T21:56:52.055Z,9.73
2019-05-17T21:59:18.803Z,9.20
2019-05-17T22:01:45.578Z,8.57
2019-05-17T22:04:12.528Z,8.37
2019-05-17T22:06:39.263Z,10.13
2019-05-17T22:09:06.495Z,9.80
2019-05-17T22:11:33.355Z,10.80
2019-05-17T22:14:00.122Z,11.30
2019-05-17T22:16:26.863Z,9.50
2019-05-17T22:18:53.746Z,9.70
2019-05-17T22:21:20.510Z,11.30
2019-05-17T22:23:47.258Z,13.20
2019-05-17T22:26:14.103Z,10.20
2019-05-17T22:28:40.895Z,10.67
2019-05-17T22:31:07.744Z,13.07
2019-05-17T22:33:34.516Z,9.40
2019-05-17T22:36:01.684Z,9.43
2019-05-17T22:38:28.537Z,9.70
2019-05-17T22:40:57.374Z,9.17
2019-05-17T22:43:25.084Z,8.53
2019-05-17T22:45:51.822Z,7.87
2019-05-17T22:48:18.562Z,8.00
2019-05-17T22:50:45.328Z,9.00
2019-05-17T22:53:12.042Z,9.07
2019-05-17T22:55:38.867Z,9.37
2019-05-17T22:58:05.762Z,9.10
2019-05-17T23:00:32.446Z,9.13
2019-05-17T23:02:59.984Z,11.00
2019-05-17T23:05:26.724Z,9.27
2019-05-17T23:07:53.431Z,10.97
2019-05-17T23:10:20.158Z,10.40
2019-05-17T23:12:46.910Z,10.13
2019-05-17T23:15:15.727Z,9.67
2019-05-17T23:17:42.451Z,12.40
2019-05-17T23:20:09.289Z,12.17
2019-05-17T23:22:36.012Z,9.47
2019-05-17T23:25:03.967Z,9.20
2019-05-17T23:27:30.734Z,9.27
2019-05-17T23:29:58.995Z,9.77
2019-05-17T23:32:25.731Z,10.10
2019-05-17T23:34:52.471Z,8.90
2019-05-17T23:37:19.309Z,8.03
2019-05-17T23:39:46.123Z,7.87
2019-05-17T23:42:12.863Z,8.30
2019-05-17T23:44:39.904Z,7.50
2019-05-17T23:47:09.440Z,7.60
2019-05-17T23:49:36.275Z,7.40
2019-05-17T23:52:03.360Z,8.33
2019-05-17T23:54:30.690Z,7.00
2019-05-17T23:56:57.561Z,7.83
2019-05-17T23:59:24.669Z,9.10
